sensor_id;sensor_type;location;lat;lon;timestamp;temperature;humidity
3770;DHT22;1900;48.890;9.190;2022-09-02T00:01:00;23.30;50.80
3770;DHT22;1900;48.890;9.190;2022-09-02T00:03:32;23.30;50.80
3770;DHT22;1900;48.890;9.190;2022-09-02T00:05:59;23.20;50.80
3770;DHT22;1900;48.890;9.190;2022-09-02T00:08:26;23.20;50.70
3770;DHT22;1900;48.890;9.190;2022-09-02T00:10:53;23.20;50.80
3770;DHT22;1900;48.890;9.190;2022-09-02T00:13:21;23.20;50.80
3770;DHT22;1900;48.890;9.190;2022-09-02T00:15:48;23.10;51.40
3770;DHT22;1900;48.890;9.190;2022-09-02T00:18:14;23.10;50.80
3770;DHT22;1900;48.890;9.190;2022-09-02T00:20:43;23.10;50.80
3770;DHT22;1900;48.890;9.190;2022-09-02T00:23:10;23.10;50.80
3770;DHT22;1900;48.890;9.190;2022-09-02T00:25:37;23.10;50.80
3770;DHT22;1900;48.890;9.190;2022-09-02T00:28:04;23.10;50.80
3770;DHT22;1900;48.890;9.190;2022-09-02T00:30:31;23.10;50.90
3770;DHT22;1900;48.890;9.190;2022-09-02T00:32:57;23.00;50.80
3770;DHT22;1900;48.890;9.190;2022-09-02T00:35:23;23.00;50.80
3770;DHT22;1900;48.890;9.190;2022-09-02T00:37:50;23.00;50.90
3770;DHT22;1900;48.890;9.190;2022-09-02T00:40:17;23.00;50.90
3770;DHT22;1900;48.890;9.190;2022-09-02T00:42:43;23.00;50.90
3770;DHT22;1900;48.890;9.190;2022-09-02T00:45:10;23.00;50.90
3770;DHT22;1900;48.890;9.190;2022-09-02T00:47:36;23.00;51.00
3770;DHT22;1900;48.890;9.190;2022-09-02T00:50:08;23.00;51.00
3770;DHT22;1900;48.890;9.190;2022-09-02T00:52:42;23.00;51.00
3770;DHT22;1900;48.890;9.190;2022-09-02T00:55:10;23.00;51.00
3770;DHT22;1900;48.890;9.190;2022-09-02T00:57:40;22.90;50.90
3770;DHT22;1900;48.890;9.190;2022-09-02T01:00:14;22.90;50.90
3770;DHT22;1900;48.890;9.190;2022-09-02T01:02:48;22.90;50.90
3770;DHT22;1900;48.890;9.190;2022-09-02T01:05:17;22.90;50.90
3770;DHT22;1900;48.890;9.190;2022-09-02T01:07:43;22.80;50.80
3770;DHT22;1900;48.890;9.190;2022-09-02T01:10:14;22.80;50.80
3770;DHT22;1900;48.890;9.190;2022-09-02T01:12:40;22.80;50.90
3770;DHT22;1900;48.890;9.190;2022-09-02T01:15:09;22.80;50.80
3770;DHT22;1900;48.890;9.190;2022-09-02T01:17:44;22.70;50.80
3770;DHT22;1900;48.890;9.190;2022-09-02T01:20:13;22.70;50.80
3770;DHT22;1900;48.890;9.190;2022-09-02T01:22:40;22.70;50.80
3770;DHT22;1900;48.890;9.190;2022-09-02T01:25:10;22.70;50.70
3770;DHT22;1900;48.890;9.190;2022-09-02T01:27:38;22.60;50.70
3770;DHT22;1900;48.890;9.190;2022-09-02T01:30:06;22.60;50.70
3770;DHT22;1900;48.890;9.190;2022-09-02T01:32:32;22.60;50.70
3770;DHT22;1900;48.890;9.190;2022-09-02T01:34:58;22.60;50.70
3770;DHT22;1900;48.890;9.190;2022-09-02T01:37:24;22.50;50.70
3770;DHT22;1900;48.890;9.190;2022-09-02T01:39:51;22.50;50.70
3770;DHT22;1900;48.890;9.190;2022-09-02T01:42:18;22.50;50.70
3770;DHT22;1900;48.890;9.190;2022-09-02T01:44:44;22.50;50.70
3770;DHT22;1900;48.890;9.190;2022-09-02T01:47:18;22.40;50.60
3770;DHT22;1900;48.890;9.190;2022-09-02T01:49:44;22.40;50.60
3770;DHT22;1900;48.890;9.190;2022-09-02T01:52:12;22.40;50.60
3770;DHT22;1900;48.890;9.190;2022-09-02T01:54:38;22.40;50.60
3770;DHT22;1900;48.890;9.190;2022-09-02T01:57:04;22.40;50.70
3770;DHT22;1900;48.890;9.190;2022-09-02T01:59:30;22.30;50.60
3770;DHT22;1900;48.890;9.190;2022-09-02T02:01:55;22.30;50.60
3770;DHT22;1900;48.890;9.190;2022-09-02T02:04:21;22.30;50.60
3770;DHT22;1900;48.890;9.190;2022-09-02T02:06:50;22.20;50.50
3770;DHT22;1900;48.890;9.190;2022-09-02T02:09:17;22.20;50.50
3770;DHT22;1900;48.890;9.190;2022-09-02T02:11:45;22.20;50.60
3770;DHT22;1900;48.890;9.190;2022-09-02T02:14:14;22.20;50.60
3770;DHT22;1900;48.890;9.190;2022-09-02T02:16:46;22.10;50.50
3770;DHT22;1900;48.890;9.190;2022-09-02T02:19:12;22.10;50.60
3770;DHT22;1900;48.890;9.190;2022-09-02T02:21:38;22.10;50.60
3770;DHT22;1900;48.890;9.190;2022-09-02T02:24:04;22.10;50.60
3770;DHT22;1900;48.890;9.190;2022-09-02T02:26:33;22.00;50.60
3770;DHT22;1900;48.890;9.190;2022-09-02T02:29:00;22.00;50.60
3770;DHT22;1900;48.890;9.190;2022-09-02T02:31:27;22.00;50.60
3770;DHT22;1900;48.890;9.190;2022-09-02T02:33:53;22.00;50.60
3770;DHT22;1900;48.890;9.190;2022-09-02T02:36:19;22.00;50.70
3770;DHT22;1900;48.890;9.190;2022-09-02T02:38:44;22.00;50.70
3770;DHT22;1900;48.890;9.190;2022-09-02T02:41:12;21.90;50.60
3770;DHT22;1900;48.890;9.190;2022-09-02T02:43:39;21.90;50.60
3770;DHT22;1900;48.890;9.190;2022-09-02T02:46:05;21.90;50.60
3770;DHT22;1900;48.890;9.190;2022-09-02T02:48:32;21.90;50.60
3770;DHT22;1900;48.890;9.190;2022-09-02T02:50:58;21.90;50.60
3770;DHT22;1900;48.890;9.190;2022-09-02T02:53:25;21.80;50.50
3770;DHT22;1900;48.890;9.190;2022-09-02T02:55:54;21.80;50.50
3770;DHT22;1900;48.890;9.190;2022-09-02T02:58:20;21.80;50.50
3770;DHT22;1900;48.890;9.190;2022-09-02T03:00:47;21.80;50.50
3770;DHT22;1900;48.890;9.190;2022-09-02T03:03:14;21.70;50.40
3770;DHT22;1900;48.890;9.190;2022-09-02T03:05:45;21.70;50.50
3770;DHT22;1900;48.890;9.190;2022-09-02T03:08:12;21.70;50.60
3770;DHT22;1900;48.890;9.190;2022-09-02T03:10:40;21.60;50.50
3770;DHT22;1900;48.890;9.190;2022-09-02T03:13:08;21.60;51.10
3770;DHT22;1900;48.890;9.190;2022-09-02T03:15:40;21.60;50.60
3770;DHT22;1900;48.890;9.190;2022-09-02T03:18:06;21.60;50.60
3770;DHT22;1900;48.890;9.190;2022-09-02T03:20:34;21.60;50.60
3770;DHT22;1900;48.890;9.190;2022-09-02T03:23:03;21.50;50.50
3770;DHT22;1900;48.890;9.190;2022-09-02T03:25:31;21.50;50.50
3770;DHT22;1900;48.890;9.190;2022-09-02T03:28:02;21.50;50.50
3770;DHT22;1900;48.890;9.190;2022-09-02T03:30:30;21.50;50.50
3770;DHT22;1900;48.890;9.190;2022-09-02T03:32:58;21.40;50.40
3770;DHT22;1900;48.890;9.190;2022-09-02T03:35:26;21.40;50.40
3770;DHT22;1900;48.890;9.190;2022-09-02T03:37:52;21.40;50.50
3770;DHT22;1900;48.890;9.190;2022-09-02T03:40:21;21.40;50.50
3770;DHT22;1900;48.890;9.190;2022-09-02T03:42:50;21.30;50.50
3770;DHT22;1900;48.890;9.190;2022-09-02T03:45:17;21.30;50.50
3770;DHT22;1900;48.890;9.190;2022-09-02T03:47:45;21.30;50.40
3770;DHT22;1900;48.890;9.190;2022-09-02T03:50:22;21.30;50.50
3770;DHT22;1900;48.890;9.190;2022-09-02T03:52:48;21.20;50.50
3770;DHT22;1900;48.890;9.190;2022-09-02T03:55:15;21.20;50.50
3770;DHT22;1900;48.890;9.190;2022-09-02T03:57:41;21.20;50.50
3770;DHT22;1900;48.890;9.190;2022-09-02T04:00:08;21.20;50.50
3770;DHT22;1900;48.890;9.190;2022-09-02T04:02:39;21.20;50.50
3770;DHT22;1900;48.890;9.190;2022-09-02T04:05:07;21.20;50.50
3770;DHT22;1900;48.890;9.190;2022-09-02T04:07:33;21.10;50.40
3770;DHT22;1900;48.890;9.190;2022-09-02T04:10:00;21.10;50.40
3770;DHT22;1900;48.890;9.190;2022-09-02T04:12:26;21.10;50.50
3770;DHT22;1900;48.890;9.190;2022-09-02T04:14:52;21.10;50.40
3770;DHT22;1900;48.890;9.190;2022-09-02T04:21:09;21.00;50.50
3770;DHT22;1900;48.890;9.190;2022-09-02T04:23:36;20.90;50.40
3770;DHT22;1900;48.890;9.190;2022-09-02T04:26:08;20.90;50.40
3770;DHT22;1900;48.890;9.190;2022-09-02T04:28:35;20.90;50.40
3770;DHT22;1900;48.890;9.190;2022-09-02T04:31:06;20.90;51.00
3770;DHT22;1900;48.890;9.190;2022-09-02T04:33:33;20.90;50.50
3770;DHT22;1900;48.890;9.190;2022-09-02T04:35:59;20.80;50.50
3770;DHT22;1900;48.890;9.190;2022-09-02T04:38:28;20.80;50.50
3770;DHT22;1900;48.890;9.190;2022-09-02T04:40:55;20.80;50.50
3770;DHT22;1900;48.890;9.190;2022-09-02T04:43:21;20.80;50.80
3770;DHT22;1900;48.890;9.190;2022-09-02T04:45:47;20.80;50.60
3770;DHT22;1900;48.890;9.190;2022-09-02T04:48:15;20.80;50.60
3770;DHT22;1900;48.890;9.190;2022-09-02T04:50:42;20.80;50.60
3770;DHT22;1900;48.890;9.190;2022-09-02T04:53:08;20.80;50.60
3770;DHT22;1900;48.890;9.190;2022-09-02T04:55:34;20.80;50.60
3770;DHT22;1900;48.890;9.190;2022-09-02T04:58:00;20.80;50.60
3770;DHT22;1900;48.890;9.190;2022-09-02T05:00:26;20.80;50.70
3770;DHT22;1900;48.890;9.190;2022-09-02T05:02:53;20.80;50.70
3770;DHT22;1900;48.890;9.190;2022-09-02T05:05:20;20.80;50.70
3770;DHT22;1900;48.890;9.190;2022-09-02T05:07:46;20.80;50.70
3770;DHT22;1900;48.890;9.190;2022-09-02T05:10:11;20.80;50.80
3770;DHT22;1900;48.890;9.190;2022-09-02T05:12:41;20.70;50.70
3770;DHT22;1900;48.890;9.190;2022-09-02T05:15:09;20.70;50.70
3770;DHT22;1900;48.890;9.190;2022-09-02T05:17:36;20.70;50.70
3770;DHT22;1900;48.890;9.190;2022-09-02T05:20:05;20.70;50.70
3770;DHT22;1900;48.890;9.190;2022-09-02T05:22:33;20.70;50.70
3770;DHT22;1900;48.890;9.190;2022-09-02T05:25:00;20.70;50.70
3770;DHT22;1900;48.890;9.190;2022-09-02T05:27:27;20.70;50.80
3770;DHT22;1900;48.890;9.190;2022-09-02T05:29:54;20.70;50.80
3770;DHT22;1900;48.890;9.190;2022-09-02T05:32:21;20.70;50.80
3770;DHT22;1900;48.890;9.190;2022-09-02T05:34:49;20.70;50.80
3770;DHT22;1900;48.890;9.190;2022-09-02T05:37:15;20.70;50.80
3770;DHT22;1900;48.890;9.190;2022-09-02T05:39:41;20.70;50.80
3770;DHT22;1900;48.890;9.190;2022-09-02T05:42:07;20.70;50.90
3770;DHT22;1900;48.890;9.190;2022-09-02T05:44:35;20.70;50.90
3770;DHT22;1900;48.890;9.190;2022-09-02T05:47:02;20.70;50.90
3770;DHT22;1900;48.890;9.190;2022-09-02T05:49:28;20.70;51.50
3770;DHT22;1900;48.890;9.190;2022-09-02T05:52:07;20.70;51.00
3770;DHT22;1900;48.890;9.190;2022-09-02T05:54:41;20.80;51.10
3770;DHT22;1900;48.890;9.190;2022-09-02T05:57:13;20.80;51.10
3770;DHT22;1900;48.890;9.190;2022-09-02T05:59:44;20.80;51.10
3770;DHT22;1900;48.890;9.190;2022-09-02T06:02:16;20.80;51.10
3770;DHT22;1900;48.890;9.190;2022-09-02T06:04:45;20.80;51.10
3770;DHT22;1900;48.890;9.190;2022-09-02T06:07:13;20.80;51.20
3770;DHT22;1900;48.890;9.190;2022-09-02T06:09:41;20.80;51.20
3770;DHT22;1900;48.890;9.190;2022-09-02T06:12:10;20.80;51.20
3770;DHT22;1900;48.890;9.190;2022-09-02T06:14:37;20.90;51.30
3770;DHT22;1900;48.890;9.190;2022-09-02T06:17:04;20.90;51.30
3770;DHT22;1900;48.890;9.190;2022-09-02T06:19:38;20.90;51.30
3770;DHT22;1900;48.890;9.190;2022-09-02T06:22:04;20.90;51.40
3770;DHT22;1900;48.890;9.190;2022-09-02T06:24:33;20.90;51.40
3770;DHT22;1900;48.890;9.190;2022-09-02T06:27:04;21.00;51.50
3770;DHT22;1900;48.890;9.190;2022-09-02T06:29:32;21.00;51.40
3770;DHT22;1900;48.890;9.190;2022-09-02T06:31:58;21.00;51.40
3770;DHT22;1900;48.890;9.190;2022-09-02T06:34:24;21.00;51.40
3770;DHT22;1900;48.890;9.190;2022-09-02T06:36:53;21.00;51.50
3770;DHT22;1900;48.890;9.190;2022-09-02T06:39:21;21.10;51.50
3770;DHT22;1900;48.890;9.190;2022-09-02T06:41:48;21.10;51.60
3770;DHT22;1900;48.890;9.190;2022-09-02T06:44:17;21.10;51.70
3770;DHT22;1900;48.890;9.190;2022-09-02T06:46:45;21.20;51.80
3770;DHT22;1900;48.890;9.190;2022-09-02T06:49:14;21.20;51.90
3770;DHT22;1900;48.890;9.190;2022-09-02T06:51:44;21.20;51.90
3770;DHT22;1900;48.890;9.190;2022-09-02T06:54:14;21.30;51.90
3770;DHT22;1900;48.890;9.190;2022-09-02T06:56:41;21.30;52.00
3770;DHT22;1900;48.890;9.190;2022-09-02T06:59:07;21.40;52.10
3770;DHT22;1900;48.890;9.190;2022-09-02T07:01:46;21.40;52.10
3770;DHT22;1900;48.890;9.190;2022-09-02T07:04:16;21.50;52.20
3770;DHT22;1900;48.890;9.190;2022-09-02T07:07:03;21.50;52.20
3770;DHT22;1900;48.890;9.190;2022-09-02T07:09:31;21.60;52.40
3770;DHT22;1900;48.890;9.190;2022-09-02T07:12:04;21.60;52.40
3770;DHT22;1900;48.890;9.190;2022-09-02T07:14:42;21.70;52.50
3770;DHT22;1900;48.890;9.190;2022-09-02T07:17:12;21.80;52.70
3770;DHT22;1900;48.890;9.190;2022-09-02T07:19:45;21.80;52.70
3770;DHT22;1900;48.890;9.190;2022-09-02T07:22:11;21.90;52.90
3770;DHT22;1900;48.890;9.190;2022-09-02T07:24:41;22.00;53.00
3770;DHT22;1900;48.890;9.190;2022-09-02T07:27:07;22.00;52.90
3770;DHT22;1900;48.890;9.190;2022-09-02T07:29:34;22.10;53.10
3770;DHT22;1900;48.890;9.190;2022-09-02T07:32:00;22.10;53.10
3770;DHT22;1900;48.890;9.190;2022-09-02T07:34:27;22.20;53.20
3770;DHT22;1900;48.890;9.190;2022-09-02T07:36:54;22.30;53.30
3770;DHT22;1900;48.890;9.190;2022-09-02T07:39:21;22.40;53.50
3770;DHT22;1900;48.890;9.190;2022-09-02T07:41:49;22.40;53.40
3770;DHT22;1900;48.890;9.190;2022-09-02T07:44:19;22.50;53.50
3770;DHT22;1900;48.890;9.190;2022-09-02T07:46:47;22.60;53.70
3770;DHT22;1900;48.890;9.190;2022-09-02T07:49:16;22.70;53.80
3770;DHT22;1900;48.890;9.190;2022-09-02T07:51:45;22.80;53.90
3770;DHT22;1900;48.890;9.190;2022-09-02T07:54:16;22.90;54.00
3770;DHT22;1900;48.890;9.190;2022-09-02T07:56:43;23.00;54.00
3770;DHT22;1900;48.890;9.190;2022-09-02T07:59:10;23.00;54.00
3770;DHT22;1900;48.890;9.190;2022-09-02T08:01:38;23.10;54.10
3770;DHT22;1900;48.890;9.190;2022-09-02T08:04:04;23.20;54.10
3770;DHT22;1900;48.890;9.190;2022-09-02T08:06:32;23.30;54.20
3770;DHT22;1900;48.890;9.190;2022-09-02T08:08:58;23.30;54.10
3770;DHT22;1900;48.890;9.190;2022-09-02T08:11:24;23.40;54.20
3770;DHT22;1900;48.890;9.190;2022-09-02T08:13:50;23.50;54.30
3770;DHT22;1900;48.890;9.190;2022-09-02T08:16:16;23.60;54.40
3770;DHT22;1900;48.890;9.190;2022-09-02T08:18:41;23.70;54.40
3770;DHT22;1900;48.890;9.190;2022-09-02T08:21:07;23.80;54.50
3770;DHT22;1900;48.890;9.190;2022-09-02T08:23:33;23.80;54.50
3770;DHT22;1900;48.890;9.190;2022-09-02T08:25:59;23.90;54.50
3770;DHT22;1900;48.890;9.190;2022-09-02T08:28:27;24.00;54.40
3770;DHT22;1900;48.890;9.190;2022-09-02T08:30:53;24.10;54.50
3770;DHT22;1900;48.890;9.190;2022-09-02T08:33:19;24.20;54.70
3770;DHT22;1900;48.890;9.190;2022-09-02T08:35:45;24.30;54.70
3770;DHT22;1900;48.890;9.190;2022-09-02T08:38:12;24.30;54.70
3770;DHT22;1900;48.890;9.190;2022-09-02T08:40:41;24.40;54.90
3770;DHT22;1900;48.890;9.190;2022-09-02T08:43:33;24.50;54.90
3770;DHT22;1900;48.890;9.190;2022-09-02T08:46:07;24.70;54.80
3770;DHT22;1900;48.890;9.190;2022-09-02T08:48:41;24.80;55.00
3770;DHT22;1900;48.890;9.190;2022-09-02T08:51:15;24.80;54.90
3770;DHT22;1900;48.890;9.190;2022-09-02T08:53:53;25.00;55.00
3770;DHT22;1900;48.890;9.190;2022-09-02T08:56:22;25.10;55.10
3770;DHT22;1900;48.890;9.190;2022-09-02T08:58:51;25.10;55.00
3770;DHT22;1900;48.890;9.190;2022-09-02T09:02:08;25.30;55.00
3770;DHT22;1900;48.890;9.190;2022-09-02T09:18:12;25.90;54.40
3770;DHT22;1900;48.890;9.190;2022-09-02T09:20:42;25.90;54.50
3770;DHT22;1900;48.890;9.190;2022-09-02T09:25:47;26.10;54.40
3770;DHT22;1900;48.890;9.190;2022-09-02T09:28:13;26.10;54.50
3770;DHT22;1900;48.890;9.190;2022-09-02T09:30:39;26.20;54.50
3770;DHT22;1900;48.890;9.190;2022-09-02T09:33:05;26.30;54.60
3770;DHT22;1900;48.890;9.190;2022-09-02T09:36:00;26.40;54.40
3770;DHT22;1900;48.890;9.190;2022-09-02T09:38:31;26.50;54.00
3770;DHT22;1900;48.890;9.190;2022-09-02T09:41:32;26.60;53.60
3770;DHT22;1900;48.890;9.190;2022-09-02T09:44:01;26.70;53.80
3770;DHT22;1900;48.890;9.190;2022-09-02T09:46:28;26.70;53.80
3770;DHT22;1900;48.890;9.190;2022-09-02T09:48:56;26.80;53.60
3770;DHT22;1900;48.890;9.190;2022-09-02T09:51:22;26.90;53.70
3770;DHT22;1900;48.890;9.190;2022-09-02T09:53:49;27.00;54.00
3770;DHT22;1900;48.890;9.190;2022-09-02T10:11:34;27.60;53.60
3770;DHT22;1900;48.890;9.190;2022-09-02T10:14:06;27.70;53.40
3770;DHT22;1900;48.890;9.190;2022-09-02T10:17:13;27.70;53.30
3770;DHT22;1900;48.890;9.190;2022-09-02T10:45:36;28.30;52.20
3770;DHT22;1900;48.890;9.190;2022-09-02T10:50:42;28.50;51.80
3770;DHT22;1900;48.890;9.190;2022-09-02T11:00:55;28.80;51.80
3770;DHT22;1900;48.890;9.190;2022-09-02T11:06:10;29.00;52.90
3770;DHT22;1900;48.890;9.190;2022-09-02T11:08:53;29.20;52.40
3770;DHT22;1900;48.890;9.190;2022-09-02T11:11:57;29.30;52.50
3770;DHT22;1900;48.890;9.190;2022-09-02T11:15:26;29.40;52.40
3770;DHT22;1900;48.890;9.190;2022-09-02T11:17:37;29.50;52.60
3770;DHT22;1900;48.890;9.190;2022-09-02T11:23:16;29.80;52.70
3770;DHT22;1900;48.890;9.190;2022-09-02T11:28:42;30.10;52.70
3770;DHT22;1900;48.890;9.190;2022-09-02T11:34:19;30.30;52.40
3770;DHT22;1900;48.890;9.190;2022-09-02T11:36:50;30.40;51.30
3770;DHT22;1900;48.890;9.190;2022-09-02T11:44:45;30.60;51.20
3770;DHT22;1900;48.890;9.190;2022-09-02T11:50:31;30.80;50.80
3770;DHT22;1900;48.890;9.190;2022-09-02T11:55:55;31.00;50.90
3770;DHT22;1900;48.890;9.190;2022-09-02T11:58:40;31.10;50.90
3770;DHT22;1900;48.890;9.190;2022-09-02T12:03:33;31.20;50.60
3770;DHT22;1900;48.890;9.190;2022-09-02T12:06:12;31.20;50.20
3770;DHT22;1900;48.890;9.190;2022-09-02T12:11:08;31.40;50.70
3770;DHT22;1900;48.890;9.190;2022-09-02T12:13:41;31.40;50.30
3770;DHT22;1900;48.890;9.190;2022-09-02T12:21:28;31.60;49.90
3770;DHT22;1900;48.890;9.190;2022-09-02T12:26:22;31.70;49.80
3770;DHT22;1900;48.890;9.190;2022-09-02T12:28:52;31.80;50.30
3770;DHT22;1900;48.890;9.190;2022-09-02T12:31:38;31.80;49.50
3770;DHT22;1900;48.890;9.190;2022-09-02T12:36:50;31.90;49.00
3770;DHT22;1900;48.890;9.190;2022-09-02T12:44:54;32.20;50.00
3770;DHT22;1900;48.890;9.190;2022-09-02T12:50:29;32.40;51.00
3770;DHT22;1900;48.890;9.190;2022-09-02T12:53:19;32.60;50.50
3770;DHT22;1900;48.890;9.190;2022-09-02T12:55:58;32.70;50.70
3770;DHT22;1900;48.890;9.190;2022-09-02T12:58:28;32.80;50.90
3770;DHT22;1900;48.890;9.190;2022-09-02T13:15:20;33.40;50.10
3770;DHT22;1900;48.890;9.190;2022-09-02T13:23:32;33.60;49.10
3770;DHT22;1900;48.890;9.190;2022-09-02T13:31:38;33.70;48.60
3770;DHT22;1900;48.890;9.190;2022-09-02T13:34:12;33.80;48.90
3770;DHT22;1900;48.890;9.190;2022-09-02T13:36:45;33.80;49.00
3770;DHT22;1900;48.890;9.190;2022-09-02T13:39:15;33.90;49.90
3770;DHT22;1900;48.890;9.190;2022-09-02T13:41:42;34.00;49.70
3770;DHT22;1900;48.890;9.190;2022-09-02T13:44:10;34.10;49.40
3770;DHT22;1900;48.890;9.190;2022-09-02T13:47:04;34.20;49.40
3770;DHT22;1900;48.890;9.190;2022-09-02T13:49:39;34.30;49.30
3770;DHT22;1900;48.890;9.190;2022-09-02T13:52:12;34.40;49.50
3770;DHT22;1900;48.890;9.190;2022-09-02T13:54:43;34.50;49.50
3770;DHT22;1900;48.890;9.190;2022-09-02T13:57:12;34.60;49.00
3770;DHT22;1900;48.890;9.190;2022-09-02T13:59:50;34.70;49.10
3770;DHT22;1900;48.890;9.190;2022-09-02T14:02:35;34.80;49.00
3770;DHT22;1900;48.890;9.190;2022-09-02T14:05:07;34.80;49.10
3770;DHT22;1900;48.890;9.190;2022-09-02T14:07:41;34.90;48.70
3770;DHT22;1900;48.890;9.190;2022-09-02T14:10:11;34.90;48.60
3770;DHT22;1900;48.890;9.190;2022-09-02T14:12:38;35.00;48.80
3770;DHT22;1900;48.890;9.190;2022-09-02T14:15:06;35.10;49.00
3770;DHT22;1900;48.890;9.190;2022-09-02T14:17:32;35.20;49.00
3770;DHT22;1900;48.890;9.190;2022-09-02T14:20:26;35.20;49.00
3770;DHT22;1900;48.890;9.190;2022-09-02T14:22:54;35.30;49.10
3770;DHT22;1900;48.890;9.190;2022-09-02T14:25:20;35.30;48.80
3770;DHT22;1900;48.890;9.190;2022-09-02T14:27:50;35.50;48.90
3770;DHT22;1900;48.890;9.190;2022-09-02T14:30:38;35.50;48.60
3770;DHT22;1900;48.890;9.190;2022-09-02T14:36:28;35.60;48.60
3770;DHT22;1900;48.890;9.190;2022-09-02T14:39:06;35.70;48.70
3770;DHT22;1900;48.890;9.190;2022-09-02T14:41:34;35.70;48.30
3770;DHT22;1900;48.890;9.190;2022-09-02T14:46:54;35.70;48.20
3770;DHT22;1900;48.890;9.190;2022-09-02T14:49:26;35.80;48.70
3770;DHT22;1900;48.890;9.190;2022-09-02T14:52:03;35.80;48.00
3770;DHT22;1900;48.890;9.190;2022-09-02T14:57:00;35.70;47.60
3770;DHT22;1900;48.890;9.190;2022-09-02T14:59:25;35.70;47.50
3770;DHT22;1900;48.890;9.190;2022-09-02T15:01:53;35.70;47.00
3770;DHT22;1900;48.890;9.190;2022-09-02T15:04:19;35.60;46.80
3770;DHT22;1900;48.890;9.190;2022-09-02T15:06:46;35.60;47.10
3770;DHT22;1900;48.890;9.190;2022-09-02T15:09:14;35.50;47.10
3770;DHT22;1900;48.890;9.190;2022-09-02T15:11:42;35.40;47.00
3770;DHT22;1900;48.890;9.190;2022-09-02T15:14:09;35.30;46.90
3770;DHT22;1900;48.890;9.190;2022-09-02T15:16:40;35.30;46.80
3770;DHT22;1900;48.890;9.190;2022-09-02T15:19:06;35.20;46.00
3770;DHT22;1900;48.890;9.190;2022-09-02T15:21:32;35.00;45.90
3770;DHT22;1900;48.890;9.190;2022-09-02T15:23:57;34.90;46.10
3770;DHT22;1900;48.890;9.190;2022-09-02T15:26:23;34.80;46.10
3770;DHT22;1900;48.890;9.190;2022-09-02T15:28:49;34.70;45.80
3770;DHT22;1900;48.890;9.190;2022-09-02T15:31:15;34.60;45.80
3770;DHT22;1900;48.890;9.190;2022-09-02T15:33:41;34.50;45.70
3770;DHT22;1900;48.890;9.190;2022-09-02T15:36:11;34.30;45.60
3770;DHT22;1900;48.890;9.190;2022-09-02T15:38:38;34.20;45.60
3770;DHT22;1900;48.890;9.190;2022-09-02T15:41:13;34.00;45.60
3770;DHT22;1900;48.890;9.190;2022-09-02T15:43:39;34.00;45.40
3770;DHT22;1900;48.890;9.190;2022-09-02T15:46:16;33.80;45.40
3770;DHT22;1900;48.890;9.190;2022-09-02T15:48:42;33.70;45.00
3770;DHT22;1900;48.890;9.190;2022-09-02T15:51:13;33.50;45.10
3770;DHT22;1900;48.890;9.190;2022-09-02T15:53:38;33.40;45.10
3770;DHT22;1900;48.890;9.190;2022-09-02T15:56:20;33.30;45.20
3770;DHT22;1900;48.890;9.190;2022-09-02T15:58:46;33.10;44.90
3770;DHT22;1900;48.890;9.190;2022-09-02T16:01:12;33.00;45.00
3770;DHT22;1900;48.890;9.190;2022-09-02T16:03:38;32.90;44.90
3770;DHT22;1900;48.890;9.190;2022-09-02T16:06:05;32.70;44.80
3770;DHT22;1900;48.890;9.190;2022-09-02T16:08:35;32.70;44.80
3770;DHT22;1900;48.890;9.190;2022-09-02T16:11:06;32.50;44.80
3770;DHT22;1900;48.890;9.190;2022-09-02T16:13:34;32.40;44.80
3770;DHT22;1900;48.890;9.190;2022-09-02T16:16:02;32.30;44.70
3770;DHT22;1900;48.890;9.190;2022-09-02T16:18:28;32.20;44.60
3770;DHT22;1900;48.890;9.190;2022-09-02T16:20:54;32.10;44.70
3770;DHT22;1900;48.890;9.190;2022-09-02T16:23:20;32.00;44.70
3770;DHT22;1900;48.890;9.190;2022-09-02T16:25:45;31.90;44.70
3770;DHT22;1900;48.890;9.190;2022-09-02T16:28:11;31.80;44.70
3770;DHT22;1900;48.890;9.190;2022-09-02T16:30:37;31.70;44.60
3770;DHT22;1900;48.890;9.190;2022-09-02T16:33:03;31.60;44.60
3770;DHT22;1900;48.890;9.190;2022-09-02T16:35:28;31.50;44.40
3770;DHT22;1900;48.890;9.190;2022-09-02T16:37:54;31.40;44.40
3770;DHT22;1900;48.890;9.190;2022-09-02T16:40:22;31.30;44.30
3770;DHT22;1900;48.890;9.190;2022-09-02T16:42:48;31.20;44.20
3770;DHT22;1900;48.890;9.190;2022-09-02T16:45:14;31.10;44.30
3770;DHT22;1900;48.890;9.190;2022-09-02T16:47:39;31.10;44.40
3770;DHT22;1900;48.890;9.190;2022-09-02T16:50:05;31.00;44.40
3770;DHT22;1900;48.890;9.190;2022-09-02T16:52:31;30.90;44.40
3770;DHT22;1900;48.890;9.190;2022-09-02T16:54:59;30.80;44.50
3770;DHT22;1900;48.890;9.190;2022-09-02T16:57:25;30.80;44.40
3770;DHT22;1900;48.890;9.190;2022-09-02T16:59:51;30.70;44.40
3770;DHT22;1900;48.890;9.190;2022-09-02T17:02:16;30.60;44.40
3770;DHT22;1900;48.890;9.190;2022-09-02T17:04:42;30.60;44.40
3770;DHT22;1900;48.890;9.190;2022-09-02T17:07:08;30.50;44.40
3770;DHT22;1900;48.890;9.190;2022-09-02T17:09:34;30.40;44.30
3770;DHT22;1900;48.890;9.190;2022-09-02T17:12:00;30.40;44.30
3770;DHT22;1900;48.890;9.190;2022-09-02T17:14:25;30.30;44.20
3770;DHT22;1900;48.890;9.190;2022-09-02T17:16:51;30.20;44.10
3770;DHT22;1900;48.890;9.190;2022-09-02T17:19:18;30.10;44.20
3770;DHT22;1900;48.890;9.190;2022-09-02T17:21:49;30.10;44.20
3770;DHT22;1900;48.890;9.190;2022-09-02T17:24:15;30.00;44.20
3770;DHT22;1900;48.890;9.190;2022-09-02T17:26:44;29.90;44.20
3770;DHT22;1900;48.890;9.190;2022-09-02T17:29:16;29.90;44.20
3770;DHT22;1900;48.890;9.190;2022-09-02T17:31:44;29.80;44.10
3770;DHT22;1900;48.890;9.190;2022-09-02T17:34:10;29.80;44.10
3770;DHT22;1900;48.890;9.190;2022-09-02T17:36:38;29.70;44.10
3770;DHT22;1900;48.890;9.190;2022-09-02T17:41:33;29.60;44.10
3770;DHT22;1900;48.890;9.190;2022-09-02T17:44:17;29.50;44.10
3770;DHT22;1900;48.890;9.190;2022-09-02T17:46:44;29.40;44.00
3770;DHT22;1900;48.890;9.190;2022-09-02T17:49:11;29.40;44.00
3770;DHT22;1900;48.890;9.190;2022-09-02T17:51:37;29.30;43.90
3770;DHT22;1900;48.890;9.190;2022-09-02T17:54:05;29.20;43.90
3770;DHT22;1900;48.890;9.190;2022-09-02T17:59:10;29.10;44.00
3770;DHT22;1900;48.890;9.190;2022-09-02T18:04:44;28.90;43.80
3770;DHT22;1900;48.890;9.190;2022-09-02T18:07:47;28.90;43.90
3770;DHT22;1900;48.890;9.190;2022-09-02T18:10:15;28.80;43.90
3770;DHT22;1900;48.890;9.190;2022-09-02T18:12:41;28.70;43.90
3770;DHT22;1900;48.890;9.190;2022-09-02T18:15:08;28.60;43.90
3770;DHT22;1900;48.890;9.190;2022-09-02T18:17:44;28.60;43.80
3770;DHT22;1900;48.890;9.190;2022-09-02T18:20:39;28.50;43.80
3770;DHT22;1900;48.890;9.190;2022-09-02T18:28:21;28.40;43.90
3770;DHT22;1900;48.890;9.190;2022-09-02T18:38:38;28.10;43.80
3770;DHT22;1900;48.890;9.190;2022-09-02T18:44:06;28.00;43.90
3770;DHT22;1900;48.890;9.190;2022-09-02T18:47:06;28.00;44.00
3770;DHT22;1900;48.890;9.190;2022-09-02T18:49:36;27.90;43.90
3770;DHT22;1900;48.890;9.190;2022-09-02T18:52:05;27.90;44.50
3770;DHT22;1900;48.890;9.190;2022-09-02T18:54:48;27.80;43.90
3770;DHT22;1900;48.890;9.190;2022-09-02T18:57:18;27.80;43.80
3770;DHT22;1900;48.890;9.190;2022-09-02T18:59:53;27.70;43.70
3770;DHT22;1900;48.890;9.190;2022-09-02T19:05:22;27.60;43.50
3770;DHT22;1900;48.890;9.190;2022-09-02T19:08:13;27.50;43.60
3770;DHT22;1900;48.890;9.190;2022-09-02T19:11:13;27.40;43.60
3770;DHT22;1900;48.890;9.190;2022-09-02T19:16:08;27.30;43.80
3770;DHT22;1900;48.890;9.190;2022-09-02T19:18:34;27.30;43.80
3770;DHT22;1900;48.890;9.190;2022-09-02T19:21:00;27.20;43.70